Time;durP1;ratioP1;P1;durP2;ratioP2;P2;SDS_P1;SDS_P2;PMS_P1;PMS_P2;Temp;Humidity;BMP_temperature;BMP_pressure;BME280_temperature;BME280_humidity;BME280_pressure;Samples;Min_cycle;Max_cycle;Signal;HPM_P1;HPM_P2
2022/12/10 00:01:16;;;;;;;11.40;8.60;;;1.60;99.90;;;;;;4976714;28;20176;-77
2022/12/10 00:03:45;;;;;;;10.57;8.07;;;1.60;99.90;;;;;;4975415;28;20204;-76
2022/12/10 00:06:23;;;;;;;12.77;8.50;;;1.60;99.90;;;;;;4973562;28;20192;-75
2022/12/10 00:08:49;;;;;;;11.17;8.10;;;1.60;99.90;;;;;;4977036;28;20180;-77
2022/12/10 00:11:16;;;;;;;12.00;8.70;;;1.50;99.90;;;;;;4975538;28;20222;-76
2022/12/10 00:13:45;;;;;;;12.33;8.97;;;1.50;99.90;;;;;;4974653;28;20204;-77
2022/12/10 00:16:15;;;;;;;12.40;8.97;;;1.50;99.90;;;;;;4976179;28;20176;-77
2022/12/10 00:18:41;;;;;;;16.83;10.83;;;1.40;99.90;;;;;;4976298;28;20180;-75
2022/12/10 00:21:12;;;;;;;13.20;9.50;;;1.40;99.90;;;;;;4976638;28;20243;-77
2022/12/10 00:23:38;;;;;;;12.77;9.37;;;1.40;99.90;;;;;;4975607;28;20195;-77
2022/12/10 00:26:19;;;;;;;13.53;9.90;;;1.40;99.90;;;;;;4976141;28;20194;-77
2022/12/10 00:28:45;;;;;;;14.63;9.23;;;1.40;99.90;;;;;;4975846;28;20180;-76
2022/12/10 00:31:23;;;;;;;18.53;11.60;;;1.30;99.90;;;;;;4973786;28;20250;-76
2022/12/10 00:33:54;;;;;;;16.90;10.90;;;1.40;99.90;;;;;;4971982;28;20206;-77
2022/12/10 00:36:28;;;;;;;17.70;11.13;;;1.40;99.90;;;;;;4976489;28;20270;-77
2022/12/10 00:38:54;;;;;;;15.97;10.30;;;1.40;99.90;;;;;;4975836;28;20183;-76
2022/12/10 00:41:19;;;;;;;17.43;11.33;;;1.40;99.90;;;;;;4971167;28;20228;-77
2022/12/10 00:43:45;;;;;;;15.17;10.70;;;1.40;99.90;;;;;;4973348;28;20192;-76
2022/12/10 00:46:12;;;;;;;15.47;10.57;;;1.40;99.90;;;;;;4975926;28;20184;-77
2022/12/10 00:48:42;;;;;;;18.53;10.93;;;1.50;99.90;;;;;;4984668;28;20220;-77
2022/12/10 00:51:30;;;;;;;20.03;12.13;;;1.50;99.90;;;;;;4976236;28;20192;-77
2022/12/10 00:53:58;;;;;;;18.03;11.93;;;1.50;99.90;;;;;;4974139;28;20203;-77
2022/12/10 00:56:32;;;;;;;19.17;11.33;;;1.50;99.90;;;;;;4974077;28;20211;-77
2022/12/10 00:59:01;;;;;;;16.50;10.97;;;1.50;99.90;;;;;;4966949;28;20406;-77
2022/12/10 01:01:33;;;;;;;15.43;10.43;;;1.60;99.90;;;;;;4975881;28;20176;-77
2022/12/10 01:04:03;;;;;;;16.50;11.03;;;1.60;99.90;;;;;;4975616;28;20191;-77
2022/12/10 01:06:32;;;;;;;17.30;11.10;;;1.60;99.90;;;;;;4974688;28;20176;-76
2022/12/10 01:09:03;;;;;;;18.53;11.93;;;1.60;99.90;;;;;;4988375;28;20203;-77
2022/12/10 01:11:34;;;;;;;18.80;12.10;;;1.70;99.90;;;;;;4973220;28;20263;-75
2022/12/10 01:14:05;;;;;;;18.13;12.13;;;1.70;99.90;;;;;;4963878;28;20287;-77
2022/12/10 01:16:33;;;;;;;20.47;11.93;;;1.80;99.90;;;;;;4972019;28;20224;-76
2022/12/10 01:19:01;;;;;;;18.10;12.10;;;1.70;99.90;;;;;;4972165;28;20254;-75
2022/12/10 01:21:30;;;;;;;17.13;11.17;;;1.70;99.90;;;;;;4974372;28;20259;-76
2022/12/10 01:23:56;;;;;;;18.07;11.70;;;1.70;99.90;;;;;;4975392;28;20203;-77
2022/12/10 01:26:25;;;;;;;16.50;10.93;;;1.80;99.90;;;;;;4974719;28;20187;-77
2022/12/10 01:28:52;;;;;;;16.37;10.67;;;1.80;99.90;;;;;;4973492;28;20270;-77
2022/12/10 01:31:23;;;;;;;16.97;11.43;;;1.80;99.90;;;;;;4974166;28;20481;-77
2022/12/10 01:33:51;;;;;;;15.97;11.37;;;1.80;99.90;;;;;;4981899;28;20200;-77
2022/12/10 01:36:21;;;;;;;17.63;11.30;;;1.90;99.90;;;;;;4969498;28;20188;-75
2022/12/10 01:38:50;;;;;;;18.87;11.60;;;1.90;99.90;;;;;;4972857;28;20271;-77
2022/12/10 01:41:27;;;;;;;16.50;10.50;;;1.90;99.90;;;;;;4966864;28;20204;-77
2022/12/10 01:43:58;;;;;;;17.63;11.30;;;2.00;99.90;;;;;;4974401;28;20199;-77
2022/12/10 01:46:30;;;;;;;18.60;11.53;;;2.00;99.90;;;;;;4966727;28;20185;-77
2022/12/10 01:48:58;;;;;;;16.80;10.17;;;2.00;99.90;;;;;;4974680;28;20234;-77
2022/12/10 01:51:31;;;;;;;16.13;10.40;;;2.00;99.90;;;;;;4969889;28;20212;-77
2022/12/10 01:53:57;;;;;;;16.60;10.13;;;2.00;99.90;;;;;;4970405;28;20199;-77
2022/12/10 01:56:23;;;;;;;16.97;11.13;;;2.00;99.90;;;;;;4973077;28;20198;-76
2022/12/10 01:58:55;;;;;;;17.33;11.23;;;2.00;99.90;;;;;;4975112;28;20204;-76
2022/12/10 02:01:45;;;;;;;18.73;11.10;;;2.10;99.90;;;;;;4974565;28;20180;-75
2022/12/10 02:04:29;;;;;;;16.93;10.43;;;2.00;99.90;;;;;;4973752;28;20188;-76
2022/12/10 02:07:04;;;;;;;17.67;11.17;;;2.00;99.90;;;;;;4971590;28;20191;-77
2022/12/10 02:09:56;;;;;;;18.77;11.60;;;1.90;99.90;;;;;;4974460;28;20180;-76
2022/12/10 02:12:50;;;;;;;20.80;12.77;;;1.90;99.90;;;;;;4971761;28;20212;-76
2022/12/10 02:15:32;;;;;;;24.27;14.83;;;1.90;99.90;;;;;;4970408;28;20231;-75
2022/12/10 02:18:07;;;;;;;22.70;14.00;;;1.90;99.90;;;;;;4971238;28;20288;-76
2022/12/10 02:20:42;;;;;;;21.50;13.23;;;2.00;99.90;;;;;;4972305;28;20262;-76
2022/12/10 02:23:14;;;;;;;23.90;14.37;;;1.90;99.90;;;;;;4971647;28;20176;-76
2022/12/10 02:26:29;;;;;;;22.57;13.33;;;1.80;99.90;;;;;;4971246;28;20250;-77
2022/12/10 02:29:18;;;;;;;23.63;13.70;;;1.80;99.90;;;;;;4934355;29;20260;-77
2022/12/10 02:32:04;;;;;;;26.33;14.73;;;1.80;99.90;;;;;;4960258;28;20219;-75
2022/12/10 02:34:36;;;;;;;23.23;13.27;;;1.80;99.90;;;;;;4974412;28;20191;-77
2022/12/10 02:37:10;;;;;;;22.13;13.13;;;1.80;99.90;;;;;;4973951;28;20203;-77
2022/12/10 02:39:48;;;;;;;21.97;12.50;;;1.90;99.90;;;;;;4974097;28;20176;-78
2022/12/10 02:42:17;;;;;;;23.87;13.60;;;1.90;99.90;;;;;;4963512;28;20183;-77
2022/12/10 02:44:48;;;;;;;21.40;13.30;;;1.80;99.90;;;;;;4973885;28;20195;-78
2022/12/10 02:47:16;;;;;;;22.13;12.73;;;1.90;99.90;;;;;;4973600;28;20181;-78
2022/12/10 02:49:44;;;;;;;20.97;13.23;;;1.80;99.90;;;;;;4969452;28;20204;-77
2022/12/10 02:52:16;;;;;;;20.40;12.60;;;1.80;99.90;;;;;;4960714;28;20185;-76
2022/12/10 02:54:50;;;;;;;22.20;12.83;;;1.80;99.90;;;;;;4974706;28;20192;-76
2022/12/10 02:57:25;;;;;;;19.87;12.33;;;1.90;99.90;;;;;;4960430;28;20282;-77
2022/12/10 03:00:12;;;;;;;25.13;14.20;;;1.90;99.90;;;;;;4966804;28;20179;-76
2022/12/10 03:02:40;;;;;;;20.77;12.43;;;1.90;99.90;;;;;;4987207;28;20363;-76
2022/12/10 03:05:33;;;;;;;20.27;12.43;;;1.90;99.90;;;;;;4978217;28;20180;-77
2022/12/10 03:08:10;;;;;;;21.17;11.00;;;1.90;99.90;;;;;;4977094;28;20199;-77
2022/12/10 03:10:41;;;;;;;15.83;9.63;;;1.90;99.90;;;;;;4976981;28;20209;-75
2022/12/10 03:13:11;;;;;;;14.47;9.50;;;2.00;99.90;;;;;;4975695;28;20188;-77
2022/12/10 03:15:40;;;;;;;15.93;10.33;;;1.90;99.90;;;;;;4974588;28;20212;-77
2022/12/10 03:18:07;;;;;;;18.53;11.27;;;1.90;99.90;;;;;;4974200;28;20236;-77
2022/12/10 03:20:39;;;;;;;18.20;11.33;;;1.90;99.90;;;;;;4975819;28;20283;-77
2022/12/10 03:23:12;;;;;;;18.20;10.37;;;2.00;99.90;;;;;;4976333;28;20184;-77
2022/12/10 03:25:38;;;;;;;19.50;11.70;;;2.00;99.90;;;;;;4974671;28;20219;-77
2022/12/10 03:28:04;;;;;;;20.50;12.10;;;2.00;99.90;;;;;;4977238;28;20214;-77
2022/12/10 03:30:35;;;;;;;20.53;12.70;;;2.00;99.90;;;;;;4977615;28;20187;-77
2022/12/10 03:33:02;;;;;;;18.27;11.10;;;2.00;99.90;;;;;;4977260;28;20191;-77
2022/12/10 03:35:28;;;;;;;17.33;10.97;;;2.00;99.90;;;;;;4977024;28;20216;-77
2022/12/10 03:37:54;;;;;;;18.03;10.87;;;2.00;99.90;;;;;;4976067;28;20295;-77
2022/12/10 03:40:23;;;;;;;16.67;10.97;;;2.00;99.90;;;;;;4972954;28;20197;-76
2022/12/10 03:42:49;;;;;;;17.80;11.03;;;2.00;99.90;;;;;;4973877;28;20175;-76
2022/12/10 03:45:15;;;;;;;15.63;9.77;;;2.00;99.90;;;;;;4976213;28;20176;-76
2022/12/10 03:47:41;;;;;;;14.47;9.50;;;1.90;99.90;;;;;;4976791;28;20232;-77
2022/12/10 03:50:08;;;;;;;13.93;9.80;;;1.90;99.90;;;;;;4965312;28;20227;-76
2022/12/10 03:52:34;;;;;;;14.43;9.53;;;1.90;99.90;;;;;;4975610;28;20184;-77
2022/12/10 03:54:59;;;;;;;14.63;9.07;;;2.00;99.90;;;;;;4976738;28;20203;-77
2022/12/10 03:57:27;;;;;;;14.27;9.63;;;2.00;99.90;;;;;;4976607;28;20250;-76
2022/12/10 03:59:53;;;;;;;17.40;10.27;;;2.00;99.90;;;;;;4976877;28;20246;-76
2022/12/10 04:02:18;;;;;;;17.43;10.50;;;2.00;99.90;;;;;;4977000;28;20200;-77
2022/12/10 04:04:44;;;;;;;15.13;10.27;;;2.00;99.90;;;;;;4974180;28;20180;-77
2022/12/10 04:07:12;;;;;;;16.67;10.10;;;2.00;99.90;;;;;;4972759;28;20444;-76
2022/12/10 04:09:38;;;;;;;17.13;10.33;;;2.00;99.90;;;;;;4974244;28;20180;-74
2022/12/10 04:12:06;;;;;;;16.60;10.33;;;1.90;99.90;;;;;;4985483;28;20200;-77
2022/12/10 04:17:21;;;;;;;15.17;9.60;;;1.90;99.90;;;;;;4975298;28;20191;-76
2022/12/10 04:19:49;;;;;;;17.03;9.23;;;1.90;99.90;;;;;;4970673;28;20200;-77
2022/12/10 04:27:47;;;;;;;20.73;11.10;;;1.80;99.90;;;;;;4976262;28;20186;-76
2022/12/10 04:30:18;;;;;;;16.50;10.13;;;1.70;99.90;;;;;;4973958;28;20278;-76
2022/12/10 04:32:46;;;;;;;17.23;10.27;;;1.70;99.90;;;;;;4972900;28;20289;-77
2022/12/10 04:35:12;;;;;;;16.50;10.00;;;1.70;99.90;;;;;;4976171;28;20294;-76
2022/12/10 04:37:38;;;;;;;14.40;9.40;;;1.70;99.90;;;;;;4975898;28;20274;-77
2022/12/10 04:40:05;;;;;;;17.53;10.23;;;1.70;99.90;;;;;;4975502;28;20211;-75
2022/12/10 04:42:30;;;;;;;16.47;9.57;;;1.70;99.90;;;;;;4974767;28;20183;-77
2022/12/10 04:44:56;;;;;;;16.47;9.83;;;1.70;99.90;;;;;;4974999;28;20176;-75
2022/12/10 04:47:22;;;;;;;17.23;10.13;;;1.70;99.90;;;;;;4976250;28;20176;-76
2022/12/10 04:49:47;;;;;;;16.00;9.73;;;1.70;99.90;;;;;;4978656;28;20419;-77
2022/12/10 04:52:17;;;;;;;16.60;10.47;;;1.70;99.90;;;;;;4965309;28;20185;-76
2022/12/10 04:54:44;;;;;;;15.97;9.77;;;1.70;99.90;;;;;;4975464;28;20203;-77
2022/12/10 04:57:12;;;;;;;14.23;8.93;;;1.70;99.90;;;;;;4972329;28;20290;-77
2022/12/10 04:59:38;;;;;;;17.50;10.33;;;1.70;99.90;;;;;;4972160;28;20212;-76
2022/12/10 05:02:04;;;;;;;15.33;10.13;;;1.70;99.90;;;;;;4972107;28;20210;-75
2022/12/10 05:04:30;;;;;;;17.93;10.70;;;1.80;99.90;;;;;;4973617;28;20194;-77
2022/12/10 05:06:58;;;;;;;14.73;9.80;;;1.70;99.90;;;;;;4975125;28;20195;-77
2022/12/10 05:09:26;;;;;;;15.67;9.87;;;1.70;99.90;;;;;;4975112;28;20231;-76
2022/12/10 05:11:51;;;;;;;16.90;10.77;;;1.70;99.90;;;;;;4974700;28;20295;-77
2022/12/10 05:14:17;;;;;;;17.50;11.07;;;1.70;99.90;;;;;;4975827;28;20294;-76
2022/12/10 05:16:45;;;;;;;17.07;10.87;;;1.80;99.90;;;;;;4969765;28;20195;-77
2022/12/10 05:19:13;;;;;;;15.43;10.77;;;1.70;99.90;;;;;;4971942;28;20196;-77
2022/12/10 05:24:23;;;;;;;15.93;10.47;;;1.70;99.90;;;;;;4974496;28;20226;-77
2022/12/10 05:26:51;;;;;;;14.47;10.17;;;1.80;99.90;;;;;;4980165;28;20180;-77
2022/12/10 05:29:18;;;;;;;15.03;9.97;;;1.70;99.90;;;;;;4973892;28;20211;-77
2022/12/10 05:31:43;;;;;;;15.70;10.70;;;1.70;99.90;;;;;;4974320;28;20407;-77
2022/12/10 05:34:10;;;;;;;14.23;9.80;;;1.70;99.90;;;;;;4975017;28;20214;-76
2022/12/10 05:36:36;;;;;;;15.33;10.67;;;1.70;99.90;;;;;;4974602;28;20227;-75
2022/12/10 05:39:07;;;;;;;15.27;10.23;;;1.70;99.90;;;;;;4974446;28;20227;-76
2022/12/10 05:41:35;;;;;;;13.87;9.57;;;1.70;99.90;;;;;;4975199;28;20191;-77
2022/12/10 05:44:01;;;;;;;13.80;9.13;;;1.70;99.90;;;;;;4974620;28;20214;-75
2022/12/10 05:46:30;;;;;;;14.60;10.20;;;1.70;99.90;;;;;;4972222;28;20181;-76
2022/12/10 05:48:56;;;;;;;14.47;10.00;;;1.70;99.90;;;;;;4974872;28;20200;-77
2022/12/10 05:51:27;;;;;;;13.83;9.27;;;1.70;99.90;;;;;;4972095;28;20524;-76
2022/12/10 05:53:54;;;;;;;13.60;9.50;;;1.70;99.90;;;;;;4973889;28;20231;-77
2022/12/10 05:56:23;;;;;;;14.47;9.10;;;1.80;99.90;;;;;;4973509;28;20211;-77
2022/12/10 05:58:50;;;;;;;12.47;8.83;;;1.80;99.90;;;;;;4973666;28;20184;-78
2022/12/10 06:01:23;;;;;;;16.03;8.97;;;1.80;99.90;;;;;;4970791;28;20177;-77
2022/12/10 06:03:52;;;;;;;13.93;9.53;;;1.80;99.90;;;;;;4978250;28;20219;-76
2022/12/10 06:06:29;;;;;;;17.50;11.70;;;1.90;99.90;;;;;;4974470;28;20180;-76
2022/12/10 06:08:56;;;;;;;16.17;10.47;;;1.90;99.90;;;;;;4973156;28;20179;-77
2022/12/10 06:11:28;;;;;;;13.70;9.90;;;1.90;99.90;;;;;;4974398;28;20275;-76
2022/12/10 06:13:56;;;;;;;14.27;10.27;;;2.00;99.90;;;;;;4973638;28;20207;-76
2022/12/10 06:16:21;;;;;;;14.17;9.77;;;2.00;99.90;;;;;;4973925;28;20282;-77
2022/12/10 06:18:50;;;;;;;16.23;11.27;;;2.00;99.90;;;;;;4971670;28;20234;-77
2022/12/10 06:21:18;;;;;;;13.63;9.87;;;2.10;99.90;;;;;;4974978;28;20199;-77
2022/12/10 06:23:46;;;;;;;15.93;11.37;;;2.10;99.90;;;;;;4974369;28;20298;-76
2022/12/10 06:26:14;;;;;;;18.07;11.53;;;2.10;99.90;;;;;;4974206;28;20188;-76
2022/12/10 06:28:40;;;;;;;15.13;10.80;;;2.10;99.90;;;;;;4974851;28;20192;-77
2022/12/10 06:31:08;;;;;;;15.43;11.40;;;2.20;99.90;;;;;;4973607;28;20265;-76
2022/12/10 06:33:34;;;;;;;15.90;11.17;;;2.20;99.90;;;;;;4989227;28;20184;-77
2022/12/10 06:36:04;;;;;;;15.63;10.93;;;2.20;99.90;;;;;;4980109;28;20185;-77
2022/12/10 06:38:30;;;;;;;16.60;11.13;;;2.20;99.90;;;;;;4976585;28;20184;-77
2022/12/10 06:40:56;;;;;;;33.73;23.57;;;2.20;99.90;;;;;;4978205;28;20168;-76
2022/12/10 06:43:23;;;;;;;26.10;18.10;;;2.20;99.90;;;;;;4975590;28;20223;-75
2022/12/10 06:45:49;;;;;;;17.80;12.97;;;2.20;99.90;;;;;;4971848;28;20180;-77
2022/12/10 06:48:17;;;;;;;18.93;13.33;;;2.30;99.90;;;;;;4978295;28;20270;-75
2022/12/10 06:50:43;;;;;;;19.03;12.87;;;2.30;99.90;;;;;;4977310;28;20199;-76
2022/12/10 06:53:08;;;;;;;17.20;12.10;;;2.30;99.90;;;;;;4970597;28;20188;-77
2022/12/10 06:55:39;;;;;;;15.33;10.90;;;2.30;99.90;;;;;;4971869;28;20207;-76
2022/12/10 06:58:05;;;;;;;18.37;11.37;;;2.30;99.90;;;;;;4973446;28;20272;-77
2022/12/10 07:00:31;;;;;;;15.37;11.20;;;2.30;99.90;;;;;;4976622;28;20264;-75
2022/12/10 07:02:56;;;;;;;13.73;9.93;;;2.30;99.90;;;;;;4971377;28;20219;-77
2022/12/10 07:05:24;;;;;;;16.07;11.13;;;2.30;99.90;;;;;;4976138;28;20215;-77
2022/12/10 07:07:52;;;;;;;15.90;11.07;;;2.30;99.90;;;;;;4971799;28;20184;-77
2022/12/10 07:10:18;;;;;;;16.70;11.60;;;2.40;99.90;;;;;;4977737;28;20210;-76
2022/12/10 07:12:46;;;;;;;15.93;11.33;;;2.30;99.90;;;;;;4977932;28;20200;-77
2022/12/10 07:15:12;;;;;;;25.73;17.03;;;2.30;99.90;;;;;;4966502;28;20211;-77
2022/12/10 07:17:39;;;;;;;27.67;16.83;;;2.30;99.90;;;;;;4978565;28;20172;-76
2022/12/10 07:20:05;;;;;;;19.13;14.03;;;2.30;99.90;;;;;;4977257;28;20204;-77
2022/12/10 07:22:31;;;;;;;20.47;13.80;;;2.20;99.90;;;;;;4975290;28;20215;-76
2022/12/10 07:24:57;;;;;;;20.07;13.47;;;2.20;99.90;;;;;;4968822;28;20267;-76
2022/12/10 07:27:22;;;;;;;19.83;12.50;;;2.10;99.90;;;;;;4977729;28;20188;-76
2022/12/10 07:29:48;;;;;;;18.57;12.63;;;2.10;99.90;;;;;;4977551;28;20228;-76
2022/12/10 07:32:13;;;;;;;17.17;12.17;;;2.10;99.90;;;;;;4975650;28;20185;-75
2022/12/10 07:34:39;;;;;;;16.23;11.50;;;2.10;99.90;;;;;;4972605;28;20460;-77
2022/12/10 07:37:07;;;;;;;18.70;12.43;;;2.10;99.90;;;;;;4975250;28;20187;-75
2022/12/10 07:39:32;;;;;;;16.33;11.30;;;2.00;99.90;;;;;;4974732;28;20203;-75
2022/12/10 07:42:00;;;;;;;18.80;12.33;;;2.00;99.90;;;;;;4977317;28;20180;-75
2022/12/10 07:44:30;;;;;;;16.23;11.00;;;2.00;99.90;;;;;;4975106;28;20204;-75
2022/12/10 07:46:56;;;;;;;15.07;9.97;;;2.00;99.90;;;;;;4971487;28;20172;-76
2022/12/10 07:49:26;;;;;;;15.83;10.50;;;2.10;99.90;;;;;;4972018;28;20192;-76
2022/12/10 07:51:52;;;;;;;16.37;10.80;;;2.10;99.90;;;;;;4971295;28;20195;-76
2022/12/10 07:54:18;;;;;;;21.10;13.60;;;2.10;99.90;;;;;;4965686;28;20211;-76
2022/12/10 07:56:43;;;;;;;17.00;11.37;;;2.10;99.90;;;;;;4976650;28;20196;-76
2022/12/10 07:59:09;;;;;;;15.87;10.63;;;2.10;99.90;;;;;;4974009;28;20211;-75
2022/12/10 08:01:35;;;;;;;15.10;10.10;;;2.10;99.90;;;;;;4977354;28;20203;-75
2022/12/10 08:04:02;;;;;;;15.23;10.07;;;2.10;99.90;;;;;;4977173;28;20187;-77
2022/12/10 08:06:29;;;;;;;15.50;10.47;;;2.20;99.90;;;;;;4971538;28;20204;-76
2022/12/10 08:08:55;;;;;;;14.90;9.70;;;2.10;99.90;;;;;;4971686;28;20271;-74
2022/12/10 08:11:23;;;;;;;14.37;9.93;;;2.10;99.90;;;;;;4976351;28;20202;-76
2022/12/10 08:13:49;;;;;;;14.93;10.37;;;2.10;99.90;;;;;;4974547;28;20269;-76
2022/12/10 08:16:22;;;;;;;15.80;10.17;;;2.10;99.90;;;;;;4975375;28;20172;-75
2022/12/10 08:18:48;;;;;;;13.10;9.83;;;2.20;99.90;;;;;;4976386;28;20207;-77
2022/12/10 08:21:25;;;;;;;12.97;9.33;;;2.20;99.90;;;;;;4976499;28;20172;-76
2022/12/10 08:23:51;;;;;;;13.97;10.30;;;2.20;99.90;;;;;;4976000;28;20183;-75
2022/12/10 08:26:19;;;;;;;16.43;10.10;;;2.20;99.90;;;;;;4973047;28;20195;-76
2022/12/10 08:28:46;;;;;;;13.33;9.50;;;2.30;99.90;;;;;;4966724;28;20187;-74
2022/12/10 08:31:13;;;;;;;16.60;10.93;;;2.30;99.90;;;;;;4976325;28;20212;-75
2022/12/10 08:33:42;;;;;;;16.37;10.63;;;2.30;99.90;;;;;;4974835;28;20279;-76
2022/12/10 08:36:12;;;;;;;16.27;9.70;;;2.30;99.90;;;;;;4975359;28;20188;-74
2022/12/10 08:38:40;;;;;;;15.07;10.13;;;2.30;99.90;;;;;;4973426;28;20219;-75
2022/12/10 08:41:13;;;;;;;14.50;9.77;;;2.40;99.90;;;;;;4972587;28;20216;-75
2022/12/10 08:43:42;;;;;;;15.83;10.67;;;2.40;99.90;;;;;;4972844;28;20172;-76
2022/12/10 08:46:10;;;;;;;19.17;11.70;;;2.40;99.90;;;;;;4974599;28;20193;-75
2022/12/10 08:48:39;;;;;;;17.37;11.67;;;2.40;99.90;;;;;;4972407;28;20311;-75
2022/12/10 08:51:06;;;;;;;19.00;12.53;;;2.50;99.90;;;;;;4976077;28;20207;-75
2022/12/10 08:53:33;;;;;;;19.83;12.87;;;2.50;99.90;;;;;;4976057;28;20524;-75
2022/12/10 08:55:59;;;;;;;16.83;11.63;;;2.50;99.90;;;;;;4976056;28;20207;-74
2022/12/10 08:58:24;;;;;;;20.40;13.50;;;2.70;99.90;;;;;;4974573;28;20196;-75
2022/12/10 09:00:52;;;;;;;19.17;12.50;;;2.60;99.90;;;;;;4972151;28;20614;-74
2022/12/10 09:03:18;;;;;;;20.20;12.97;;;2.60;99.90;;;;;;4972919;28;20192;-76
2022/12/10 09:05:44;;;;;;;18.80;12.77;;;2.60;99.90;;;;;;4975988;28;20206;-74
2022/12/10 09:08:13;;;;;;;22.63;13.00;;;2.70;99.90;;;;;;4975987;28;20188;-76
2022/12/10 09:10:42;;;;;;;17.93;12.17;;;2.70;99.90;;;;;;4970937;28;20259;-76
2022/12/10 09:13:07;;;;;;;18.37;12.27;;;2.80;99.90;;;;;;4976244;28;20172;-75
2022/12/10 09:15:35;;;;;;;20.27;12.43;;;2.80;99.90;;;;;;4975299;28;20215;-75
2022/12/10 09:18:01;;;;;;;17.40;12.20;;;2.80;99.90;;;;;;4975208;28;20204;-77
2022/12/10 09:20:26;;;;;;;19.27;12.23;;;2.80;99.90;;;;;;4974365;28;20176;-76
2022/12/10 09:22:52;;;;;;;18.73;12.73;;;2.90;99.90;;;;;;4975530;28;20198;-76
2022/12/10 09:25:21;;;;;;;20.33;13.63;;;2.90;99.90;;;;;;4971791;28;20188;-76
2022/12/10 09:27:49;;;;;;;20.80;13.10;;;3.00;99.90;;;;;;4971642;28;20184;-75
2022/12/10 09:30:15;;;;;;;18.70;13.17;;;3.00;99.90;;;;;;4971369;28;20181;-76
2022/12/10 09:32:42;;;;;;;19.10;12.27;;;3.00;99.90;;;;;;4968157;28;20176;-78
2022/12/10 09:35:11;;;;;;;18.73;13.13;;;3.20;99.90;;;;;;4972087;28;20204;-78
2022/12/10 09:37:39;;;;;;;23.13;14.80;;;3.10;99.90;;;;;;4974660;28;20260;-81
2022/12/10 09:40:09;;;;;;;22.03;15.00;;;3.10;99.90;;;;;;4971947;28;20184;-76
2022/12/10 09:42:56;;;;;;;22.83;15.47;;;3.10;99.90;;;;;;4975330;28;20191;-77
2022/12/10 09:46:15;;;;;;;22.90;15.00;;;3.10;99.90;;;;;;4972098;28;20180;-75
2022/12/10 09:49:20;;;;;;;19.70;14.07;;;3.10;99.90;;;;;;4965678;28;20188;-77
2022/12/10 09:52:04;;;;;;;19.70;12.97;;;3.10;99.90;;;;;;4975124;28;20305;-74
2022/12/10 09:54:39;;;;;;;19.30;12.77;;;3.20;99.90;;;;;;4965293;28;20258;-77
2022/12/10 09:57:18;;;;;;;18.10;12.97;;;3.20;99.90;;;;;;4975111;28;20227;-76
2022/12/10 09:59:51;;;;;;;17.70;12.33;;;3.20;99.90;;;;;;4974046;28;20211;-75
2022/12/10 10:02:31;;;;;;;16.50;11.77;;;3.30;99.90;;;;;;4974480;28;20341;-76
2022/12/10 10:05:08;;;;;;;17.40;11.17;;;3.30;99.90;;;;;;4974117;28;20200;-76
2022/12/10 10:07:38;;;;;;;14.53;10.27;;;3.40;99.90;;;;;;4974980;28;20191;-74
2022/12/10 10:10:07;;;;;;;13.80;9.33;;;3.30;99.90;;;;;;4974942;28;20244;-75
2022/12/10 10:12:42;;;;;;;15.77;9.90;;;3.30;99.90;;;;;;4970589;28;20267;-75
2022/12/10 10:15:34;;;;;;;15.10;10.03;;;3.30;99.90;;;;;;4972192;28;20234;-76
2022/12/10 10:18:40;;;;;;;15.20;10.43;;;3.30;99.90;;;;;;4972162;28;20177;-81
2022/12/10 10:21:43;;;;;;;15.57;10.20;;;3.30;99.90;;;;;;4972562;28;20425;-80
2022/12/10 10:25:02;;;;;;;13.53;8.77;;;3.40;99.90;;;;;;4985301;28;20200;-75
2022/12/10 10:27:33;;;;;;;14.03;9.90;;;3.30;99.90;;;;;;4974794;28;20279;-77
2022/12/10 10:30:07;;;;;;;14.93;9.50;;;3.30;99.90;;;;;;4970225;28;20231;-76
2022/12/10 10:32:38;;;;;;;14.37;9.80;;;3.50;99.90;;;;;;4963507;28;20274;-76
2022/12/10 10:35:05;;;;;;;13.87;9.30;;;3.30;99.90;;;;;;4967857;28;20236;-75
2022/12/10 10:37:34;;;;;;;13.73;9.47;;;3.20;99.90;;;;;;4974134;28;20234;-77
2022/12/10 10:39:59;;;;;;;14.23;9.67;;;3.20;99.90;;;;;;4974546;28;20270;-77
2022/12/10 10:42:28;;;;;;;14.93;9.97;;;3.40;99.90;;;;;;4973447;28;20274;-77
2022/12/10 10:44:54;;;;;;;12.83;9.20;;;3.20;99.90;;;;;;4974429;28;20184;-78
2022/12/10 10:47:26;;;;;;;13.70;9.40;;;3.10;99.90;;;;;;4963391;28;20188;-76
2022/12/10 10:49:53;;;;;;;15.33;9.97;;;3.20;99.90;;;;;;4966551;28;20272;-78
2022/12/10 10:52:18;;;;;;;15.37;9.43;;;3.20;99.90;;;;;;4971552;28;20219;-75
2022/12/10 10:54:45;;;;;;;13.23;9.23;;;3.20;99.90;;;;;;4970181;28;20240;-77
2022/12/10 10:57:24;;;;;;;12.83;9.10;;;3.20;99.90;;;;;;4967710;28;20312;-77
2022/12/10 10:59:59;;;;;;;17.03;10.93;;;3.20;99.90;;;;;;4966404;28;20271;-76
2022/12/10 11:02:35;;;;;;;13.67;9.83;;;3.20;99.90;;;;;;4973720;28;20176;-75
2022/12/10 11:05:15;;;;;;;13.37;10.13;;;3.20;99.90;;;;;;4973883;28;20180;-75
2022/12/10 11:07:44;;;;;;;12.33;9.17;;;3.20;99.90;;;;;;4970861;28;20184;-76
2022/12/10 11:10:21;;;;;;;13.47;9.57;;;3.20;99.90;;;;;;4973849;28;20203;-78
2022/12/10 11:13:08;;;;;;;13.33;8.97;;;3.20;99.90;;;;;;4958359;28;20224;-75
2022/12/10 11:15:40;;;;;;;12.50;8.50;;;3.20;99.90;;;;;;4969843;28;20291;-75
2022/12/10 11:18:39;;;;;;;14.90;9.30;;;3.20;99.90;;;;;;4986799;28;20208;-79
2022/12/10 11:21:13;;;;;;;13.17;9.23;;;3.20;99.90;;;;;;4966331;28;20266;-76
2022/12/10 11:23:48;;;;;;;14.17;9.17;;;3.20;99.90;;;;;;4973215;28;20210;-75
2022/12/10 11:26:34;;;;;;;14.87;9.87;;;3.20;99.90;;;;;;4969899;28;20214;-74
2022/12/10 11:29:20;;;;;;;14.50;9.90;;;3.20;99.90;;;;;;4975622;28;20176;-78
2022/12/10 11:32:34;;;;;;;15.27;10.37;;;3.20;99.90;;;;;;4973590;28;20188;-77
2022/12/10 11:35:16;;;;;;;13.83;9.80;;;3.30;99.90;;;;;;4966803;28;20262;-76
2022/12/10 11:37:54;;;;;;;15.23;9.93;;;3.30;99.90;;;;;;4975162;28;20263;-77
2022/12/10 11:40:31;;;;;;;13.93;9.97;;;3.30;99.90;;;;;;4970707;28;20179;-77
2022/12/10 11:43:05;;;;;;;14.03;9.93;;;3.40;99.90;;;;;;4974050;28;20332;-77
2022/12/10 11:45:53;;;;;;;15.43;10.00;;;3.40;99.90;;;;;;4975425;28;20207;-77
2022/12/10 11:48:43;;;;;;;13.57;9.63;;;3.40;99.90;;;;;;4977913;28;20246;-78
2022/12/10 11:51:55;;;;;;;13.13;9.33;;;3.40;99.90;;;;;;4976527;28;20184;-75
2022/12/10 11:54:53;;;;;;;12.97;8.80;;;3.50;99.90;;;;;;4971179;28;20195;-78
2022/12/10 12:01:23;;;;;;;12.33;8.57;;;3.50;99.90;;;;;;4964568;28;20187;-76
2022/12/10 12:04:25;;;;;;;13.97;8.93;;;3.50;99.90;;;;;;4970667;28;20236;-77
2022/12/10 12:07:21;;;;;;;13.50;9.77;;;3.50;99.90;;;;;;4976569;28;20187;-75
2022/12/10 12:10:25;;;;;;;15.43;9.60;;;3.60;99.90;;;;;;4961627;28;20378;-74
2022/12/10 12:13:15;;;;;;;15.87;9.63;;;3.50;99.90;;;;;;4975257;28;20187;-77
2022/12/10 12:16:14;;;;;;;15.60;10.60;;;3.50;99.90;;;;;;4973648;28;20213;-77
2022/12/10 12:19:07;;;;;;;15.60;10.30;;;3.50;99.90;;;;;;4972310;28;20169;-76
2022/12/10 12:21:36;;;;;;;16.27;10.43;;;3.50;99.90;;;;;;4971251;28;20251;-76
2022/12/10 12:24:39;;;;;;;16.47;11.00;;;3.50;99.90;;;;;;4975008;28;20194;-76
2022/12/10 12:27:40;;;;;;;15.57;10.27;;;3.40;99.90;;;;;;4921169;29;20181;-77
2022/12/10 12:30:06;;;;;;;15.03;10.00;;;3.50;99.90;;;;;;4989625;28;20219;-77
2022/12/10 12:32:53;;;;;;;17.13;10.30;;;3.50;99.90;;;;;;4976151;28;20211;-75
2022/12/10 12:35:38;;;;;;;15.90;10.40;;;3.50;99.90;;;;;;4974820;28;20212;-76
2022/12/10 12:38:33;;;;;;;17.60;10.83;;;3.50;99.90;;;;;;4973760;28;20238;-75
2022/12/10 12:41:04;;;;;;;16.17;10.93;;;3.60;99.90;;;;;;4968291;28;20252;-75
2022/12/10 12:46:37;;;;;;;18.13;11.77;;;3.60;99.90;;;;;;4972083;28;20172;-76
2022/12/10 12:49:53;;;;;;;17.33;11.57;;;3.70;99.90;;;;;;4975174;28;20207;-78
2022/12/10 12:52:50;;;;;;;17.53;11.20;;;3.70;99.90;;;;;;4975034;28;20232;-78
2022/12/10 12:55:24;;;;;;;18.47;12.33;;;3.80;99.90;;;;;;4971136;28;20434;-80
2022/12/10 12:57:56;;;;;;;19.83;12.27;;;3.80;99.90;;;;;;4990585;28;20208;-79
2022/12/10 13:00:23;;;;;;;18.03;11.87;;;3.90;99.90;;;;;;4969132;28;20187;-77
2022/12/10 13:03:03;;;;;;;19.73;12.67;;;3.80;99.90;;;;;;4971650;28;20223;-77
2022/12/10 13:05:38;;;;;;;18.70;12.93;;;3.80;99.90;;;;;;4964840;28;20175;-78
2022/12/10 13:08:19;;;;;;;18.10;11.80;;;3.90;99.90;;;;;;4973980;28;20187;-76
2022/12/10 13:10:51;;;;;;;17.53;11.90;;;3.90;99.90;;;;;;4973103;28;20234;-73
2022/12/10 13:13:29;;;;;;;20.93;13.07;;;3.90;99.90;;;;;;4989394;28;20185;-79
2022/12/10 13:16:33;;;;;;;19.70;12.87;;;4.00;99.90;;;;;;4975440;28;20211;-79
2022/12/10 13:19:19;;;;;;;18.07;12.57;;;4.00;99.90;;;;;;4971654;28;20211;-77
2022/12/10 13:22:05;;;;;;;19.47;12.87;;;4.00;99.90;;;;;;4973633;28;20204;-75
2022/12/10 13:24:36;;;;;;;18.90;12.30;;;4.00;99.90;;;;;;4970562;28;20245;-76
2022/12/10 13:27:05;;;;;;;16.67;11.70;;;4.00;99.90;;;;;;4975584;28;20210;-76